Time;durP1;ratioP1;P1;durP2;ratioP2;P2;SDS_P1;SDS_P2;PMS_P1;PMS_P2;Temp;Humidity;BMP_temperature;BMP_pressure;BME280_temperature;BME280_humidity;BME280_pressure;Samples;Min_cycle;Max_cycle;Signal;HPM_P1;HPM_P2
2021/05/25 00:01:47;;;;;;;4.57;1.67;;;;;;;8.88;100.00;100728.47;10280016;28;20369;-81
2021/05/25 00:06:48;;;;;;;2.88;1.40;;;;;;;8.81;100.00;100729.09;10241615;28;20278;-79
2021/05/25 00:11:48;;;;;;;6.95;1.98;;;;;;;8.75;100.00;100735.91;10267849;28;20459;-82
2021/05/25 00:16:51;;;;;;;5.18;1.70;;;;;;;8.33;100.00;100693.28;10280739;28;20038;-79
2021/05/25 00:21:51;;;;;;;;;;;;;;;8.67;100.00;100745.72;10278705;28;20061;-79
2021/05/25 00:26:52;;;;;;;6.50;1.73;;;;;;;8.31;100.00;100695.53;10265564;28;19945;-79
2021/05/25 00:31:52;;;;;;;4.38;2.00;;;;;;;8.51;100.00;100733.38;10262695;28;20031;-79
2021/05/25 00:36:53;;;;;;;6.10;1.92;;;;;;;8.50;100.00;100723.72;10267053;28;20077;-80
2021/05/25 00:41:56;;;;;;;5.80;2.03;;;;;;;8.54;100.00;100724.59;10252894;28;20123;-83
2021/05/25 00:46:56;;;;;;;4.97;1.98;;;;;;;8.41;100.00;100732.75;10272468;28;20038;-80
2021/05/25 00:51:57;;;;;;;3.63;1.90;;;;;;;8.50;100.00;100718.34;10262743;28;20035;-81
2021/05/25 00:56:58;;;;;;;3.45;1.73;;;;;;;8.51;100.00;100719.91;10266204;28;20507;-82
2021/05/25 01:01:58;;;;;;;9.25;1.60;;;;;;;8.21;100.00;100685.28;10262190;28;20035;-81
2021/05/25 01:06:59;;;;;;;4.65;1.83;;;;;;;8.48;100.00;100731.38;10252148;28;20043;-83
2021/05/25 01:12:02;;;;;;;5.88;1.67;;;;;;;8.48;100.00;100736.75;10281498;28;20050;-83
2021/05/25 01:17:05;;;;;;;6.32;1.70;;;;;;;8.62;100.00;100753.28;10286920;28;20051;-81
2021/05/25 01:22:06;;;;;;;3.15;1.30;;;;;;;8.71;100.00;100766.59;10268420;28;20051;-85
2021/05/25 01:27:07;;;;;;;4.13;1.33;;;;;;;8.77;100.00;100760.59;10253885;28;20722;-82
2021/05/25 01:32:08;;;;;;;6.72;1.77;;;;;;;8.76;100.00;100769.00;10241069;28;20656;-81
2021/05/25 01:37:08;;;;;;;6.88;1.67;;;;;;;8.64;100.00;100751.03;10233865;28;20114;-83
2021/05/25 01:42:09;;;;;;;5.88;1.88;;;;;;;8.73;100.00;100754.31;10268632;28;20039;-82
2021/05/25 01:47:10;;;;;;;5.15;2.08;;;;;;;8.76;100.00;100769.00;10269904;28;20089;-83
2021/05/25 01:52:12;;;;;;;6.18;2.40;;;;;;;8.55;100.00;100743.09;10267005;28;20035;-84
2021/05/25 01:57:12;;;;;;;8.50;2.58;;;;;;;8.71;100.00;100761.97;10303876;28;20043;-84
2021/05/25 02:02:13;;;;;;;7.80;3.00;;;;;;;8.61;100.00;100767.91;10262371;28;20290;-83
2021/05/25 02:07:20;;;;;;;6.53;2.60;;;;;;;8.62;100.00;100758.66;10274981;28;20036;-85
2021/05/25 02:12:20;;;;;;;5.60;2.50;;;;;;;8.33;100.00;100704.06;10263730;28;20094;-85
2021/05/25 02:17:25;;;;;;;6.95;2.63;;;;;;;8.62;100.00;100747.88;10267901;28;20130;-81
2021/05/25 02:22:26;;;;;;;5.53;2.75;;;;;;;8.68;100.00;100757.28;10268401;28;20137;-80
2021/05/25 02:27:26;;;;;;;5.28;2.33;;;;;;;8.55;100.00;100747.72;10301173;28;20039;-83
2021/05/25 02:32:27;;;;;;;4.95;2.35;;;;;;;8.55;100.00;100731.56;10266504;28;20401;-81
2021/05/25 02:37:28;;;;;;;7.53;3.42;;;;;;;8.70;100.00;100765.78;10280354;28;20155;-84
2021/05/25 02:42:28;;;;;;;5.82;3.88;;;;;;;8.77;100.00;100776.75;10264689;28;20039;-86
2021/05/25 02:47:29;;;;;;;8.68;4.55;;;;;;;8.83;100.00;100778.06;10252927;28;20384;-81
2021/05/25 02:52:29;;;;;;;7.10;4.15;;;;;;;8.38;100.00;100706.50;10279316;28;20077;-83
2021/05/25 02:57:29;;;;;;;7.88;4.88;;;;;;;8.85;100.00;100789.28;10242318;28;20047;-83
2021/05/25 03:02:30;;;;;;;11.85;4.90;;;;;;;8.44;100.00;100734.78;10279448;28;20051;-80
2021/05/25 03:07:31;;;;;;;10.48;4.63;;;;;;;8.37;100.00;100726.47;10246780;28;20073;-82
2021/05/25 03:12:32;;;;;;;8.60;4.95;;;;;;;8.84;100.00;100793.09;10284428;28;20038;-82
2021/05/25 03:17:33;;;;;;;10.88;5.38;;;;;;;8.83;100.00;100780.75;10269768;28;20392;-80
2021/05/25 03:22:34;;;;;;;8.00;4.53;;;;;;;8.71;100.00;100794.31;10282170;28;21052;-80
2021/05/25 03:27:35;;;;;;;7.97;4.47;;;;;;;8.80;100.00;100792.22;10283883;28;20031;-82
2021/05/25 03:32:36;;;;;;;7.22;4.28;;;;;;;8.32;100.00;100761.72;10277148;28;20038;-79
2021/05/25 03:37:37;;;;;;;6.35;4.22;;;;;;;8.41;100.00;100754.31;10260410;28;20113;-84
2021/05/25 03:42:38;;;;;;;7.15;3.72;;;;;;;8.52;100.00;100764.59;10243368;28;20392;-80
2021/05/25 03:47:44;;;;;;;5.40;2.42;;;;;;;8.64;100.00;100783.34;10271772;28;20053;-83
2021/05/25 03:52:50;;;;;;;9.35;2.65;;;;;;;8.88;100.00;100820.91;10269836;28;20066;-80
2021/05/25 04:03:10;;;;;;;3.78;1.17;;;;;;;8.72;100.00;100822.81;10267647;28;20042;-82
2021/05/25 04:08:13;;;;;;;9.43;2.95;;;;;;;8.65;100.00;100809.16;10262921;28;20046;-80
2021/05/25 04:13:15;;;;;;;5.55;2.20;;;;;;;8.68;100.00;100833.53;10296897;28;21741;-80
2021/05/25 04:18:15;;;;;;;8.07;3.47;;;;;;;8.77;100.00;100854.94;10276558;28;20233;-80
2021/05/25 04:23:16;;;;;;;7.03;2.50;;;;;;;8.76;100.00;100839.09;10277803;28;20046;-79
2021/05/25 04:28:17;;;;;;;5.95;3.28;;;;;;;8.35;100.00;100766.44;10275329;28;20051;-83
2021/05/25 04:33:18;;;;;;;7.30;4.10;;;;;;;8.86;100.00;100850.13;10271981;28;20039;-80
2021/05/25 04:38:18;;;;;;;7.78;5.43;;;;;;;8.51;100.00;100806.09;10279489;28;20093;-80
2021/05/25 04:43:19;;;;;;;10.18;6.72;;;;;;;9.02;100.00;100862.84;10267466;28;20054;-81
2021/05/25 04:48:22;;;;;;;9.50;6.40;;;;;;;8.91;100.00;100857.16;10252770;28;20349;-82
2021/05/25 04:53:23;;;;;;;9.20;6.05;;;;;;;9.19;100.00;100878.66;10247806;28;20030;-85
2021/05/25 04:58:37;;;;;;;;;;;;;;;;;;;;;
2021/05/25 05:10:58;;;;;;;;;;;;;;;;;;;;;
2021/05/25 05:16:47;;;;;;;11.52;5.30;;;;;;;8.99;100.00;100841.97;10261062;28;20049;-77
2021/05/25 05:28:10;;;;;;;9.80;2.63;;;;;;;9.74;100.00;100914.66;10269979;28;20043;-85
2021/05/25 05:52:22;;;;;;;;;;;;;;;;;;;;;
2021/05/25 05:57:57;;;;;;;;;;;;;;;;;;;;;
2021/05/25 06:03:48;;;;;;;9.40;2.10;;;;;;;10.03;100.00;100969.31;10267300;28;20562;-83
2021/05/25 06:09:37;;;;;;;8.63;1.60;;;;;;;8.80;100.00;100781.44;10277409;28;20041;-83
2021/05/25 06:14:59;;;;;;;9.70;1.92;;;;;;;9.62;100.00;100900.47;10311120;28;20085;-84
2021/05/25 06:21:23;;;;;;;;;;;;;;;;;;;;;
2021/05/25 06:39:05;;;;;;;11.02;1.98;;;;;;;10.91;100.00;101022.91;10111159;29;20159;-84
2021/05/25 06:44:31;;;;;;;7.15;1.83;;;;;;;10.18;100.00;100915.59;10110817;29;20052;-83
2021/05/25 06:49:42;;;;;;;8.52;2.03;;;;;;;11.11;100.00;101052.66;10121190;29;20108;-83
2021/05/25 06:55:02;;;;;;;6.50;2.15;;;;;;;10.98;99.15;101016.84;10170419;28;20058;-84
2021/05/25 07:01:06;;;;;;;8.35;2.50;;;;;;;11.65;98.19;101054.41;10263572;28;20051;-82
2021/05/25 07:12:25;;;;;;;8.38;2.10;;;;;;;11.69;92.98;100990.28;10257016;28;20046;-82
2021/05/25 07:17:29;;;;;;;8.00;1.90;;;;;;;11.37;91.01;100963.44;10275984;28;20039;-83
2021/05/25 07:22:54;;;;;;;9.98;2.45;;;;;;;12.24;90.03;101079.38;10265406;28;20113;-82
2021/05/25 07:28:18;;;;;;;10.48;2.25;;;;;;;11.48;89.48;100968.28;10263580;28;20050;-83
2021/05/25 07:33:26;;;;;;;10.55;2.30;;;;;;;12.35;90.50;101095.81;10273880;28;20047;-84
2021/05/25 07:38:31;;;;;;;11.95;2.00;;;;;;;13.96;78.45;101006.06;10277761;28;20444;-84
2021/05/25 07:43:37;;;;;;;9.05;1.80;;;;;;;14.74;74.47;101102.88;10277533;28;20054;-84
2021/05/25 07:55:28;;;;;;;;;;;;;;;;;;;;;
2021/05/25 08:01:04;;;;;;;7.75;1.80;;;;;;;13.14;74.83;101037.13;10289854;28;20142;-85
2021/05/25 08:06:39;;;;;;;14.82;2.40;;;;;;;12.85;83.80;101156.19;10261987;28;20051;-85
2021/05/25 08:12:03;;;;;;;10.70;2.28;;;;;;;11.79;91.09;101081.72;10232741;28;20062;-85
2021/05/25 08:30:08;;;;;;;;;;;;;;;;;;;;;
2021/05/25 08:35:40;;;;;;;;;;;;;;;;;;;;;
2021/05/25 08:41:12;;;;;;;8.20;1.98;;;;;;;15.61;67.58;101191.94;10223815;28;20389;-82
2021/05/25 08:46:55;;;;;;;10.48;2.20;;;;;;;15.23;68.33;101095.31;10245652;28;20054;-84
2021/05/25 08:52:21;;;;;;;8.98;1.38;;;;;;;16.67;62.82;101140.59;10239438;28;20198;-81
2021/05/25 08:58:26;;;;;;;10.02;2.78;;;;;;;15.74;64.94;101158.94;10245467;28;20058;-81
2021/05/25 09:04:04;;;;;;;7.43;1.50;;;;;;;16.44;63.68;101181.94;10215283;28;20038;-81
2021/05/25 09:09:12;;;;;;;11.52;1.58;;;;;;;16.05;64.39;101215.44;10246071;28;20046;-80
2021/05/25 09:14:12;;;;;;;15.23;2.05;;;;;;;15.38;67.52;101216.78;10254181;28;20117;-81
2021/05/25 09:19:13;;;;;;;8.07;1.45;;;;;;;14.30;70.75;101209.06;10256838;28;20061;-80
2021/05/25 09:24:13;;;;;;;15.00;3.55;;;;;;;13.71;76.47;101206.94;10280554;28;20066;-79
2021/05/25 09:29:15;;;;;;;11.18;2.40;;;;;;;12.87;78.39;101170.16;10289577;28;20112;-81
2021/05/25 09:34:21;;;;;;;10.25;3.10;;;;;;;13.98;76.40;101231.28;10262049;28;20170;-82
2021/05/25 09:39:21;;;;;;;13.93;2.70;;;;;;;14.25;75.94;101223.78;10271518;28;20105;-82
2021/05/25 09:44:23;;;;;;;14.25;3.17;;;;;;;13.99;74.21;101223.88;10254161;28;20078;-84
2021/05/25 09:49:24;;;;;;;11.30;1.83;;;;;;;13.38;78.09;101177.84;10273748;28;20038;-83
2021/05/25 09:54:24;;;;;;;7.80;1.60;;;;;;;14.20;75.99;101248.56;10273132;28;20046;-82
2021/05/25 09:59:38;;;;;;;8.77;1.73;;;;;;;15.48;68.63;101239.78;10281264;28;20053;-81
2021/05/25 10:04:38;;;;;;;8.93;1.52;;;;;;;16.05;65.15;101259.06;10261160;28;20034;-81
2021/05/25 10:09:39;;;;;;;7.03;1.65;;;;;;;15.02;68.01;101204.91;10242395;28;20047;-81
2021/05/25 10:14:39;;;;;;;11.75;3.83;;;;;;;14.18;71.36;101240.03;10262015;28;20059;-81
2021/05/25 10:19:40;;;;;;;10.05;2.30;;;;;;;14.12;74.05;101260.53;10281635;28;20063;-80
2021/05/25 10:24:43;;;;;;;11.70;3.15;;;;;;;14.84;70.94;101263.91;10278493;28;20035;-82
2021/05/25 10:29:44;;;;;;;14.57;3.40;;;;;;;14.87;71.84;101263.16;10262135;28;20035;-82
2021/05/25 10:34:45;;;;;;;13.48;3.35;;;;;;;14.43;73.50;101272.09;10277156;28;20047;-84
2021/05/25 10:39:46;;;;;;;13.68;2.33;;;;;;;14.20;73.66;101243.13;10293401;28;20035;-82
2021/05/25 10:44:51;;;;;;;16.53;3.33;;;;;;;14.29;74.89;101268.06;10247499;28;20078;-80
2021/05/25 10:50:13;;;;;;;13.02;3.03;;;;;;;14.03;74.15;101230.16;10260897;28;20630;-83
2021/05/25 10:55:29;;;;;;;11.60;1.83;;;;;;;14.22;75.31;101273.44;10288191;28;20050;-83
2021/05/25 11:00:32;;;;;;;8.80;1.95;;;;;;;14.44;72.76;101246.44;10286928;28;20059;-81
2021/05/25 11:05:37;;;;;;;10.23;2.40;;;;;;;14.38;71.70;101276.72;10296784;28;20375;-85
2021/05/25 11:10:38;;;;;;;7.63;2.17;;;;;;;14.64;72.23;101283.19;10277583;28;20142;-80
2021/05/25 11:16:21;;;;;;;14.32;2.97;;;;;;;14.31;72.88;101287.53;10264315;28;20035;-80
2021/05/25 11:22:03;;;;;;;;;;;;;;;14.37;69.82;101247.97;10271810;28;20105;-79
2021/05/25 11:27:14;;;;;;;7.53;2.28;;;;;;;14.40;68.20;101294.63;10292440;28;19918;-81
2021/05/25 11:32:16;;;;;;;10.90;3.22;;;;;;;14.66;70.19;101291.75;10285873;28;20050;-80
2021/05/25 11:37:25;;;;;;;13.15;2.08;;;;;;;14.65;68.11;101295.66;10277694;28;20041;-79
2021/05/25 11:42:27;;;;;;;7.85;1.35;;;;;;;15.12;66.90;101293.25;10262855;28;20369;-78
2021/05/25 11:47:28;;;;;;;15.13;2.67;;;;;;;15.37;65.94;101290.69;10243794;28;20073;-79
2021/05/25 11:52:33;;;;;;;6.60;1.77;;;;;;;14.93;67.51;101288.84;10261950;28;20137;-80
2021/05/25 11:57:37;;;;;;;9.27;3.08;;;;;;;14.79;68.58;101295.78;10254221;28;20055;-77
2021/05/25 12:02:41;;;;;;;9.85;2.47;;;;;;;14.77;68.33;101294.59;10293174;28;20137;-81
2021/05/25 12:07:45;;;;;;;6.97;1.40;;;;;;;14.77;68.59;101287.19;10256040;28;20042;-77
2021/05/25 12:12:46;;;;;;;8.07;1.63;;;;;;;15.50;66.41;101300.13;10274265;28;20027;-77
2021/05/25 12:17:51;;;;;;;4.20;1.20;;;;;;;15.60;62.88;101293.94;10295333;28;20082;-77
2021/05/25 12:22:53;;;;;;;6.50;0.95;;;;;;;15.63;62.08;101281.50;10274790;28;20133;-78
2021/05/25 12:28:14;;;;;;;5.38;1.58;;;;;;;15.93;61.18;101231.41;10278661;28;20119;-79
2021/05/25 12:33:26;;;;;;;6.20;1.48;;;;;;;15.91;61.10;101319.00;10284244;28;20066;-78
2021/05/25 12:38:27;;;;;;;6.72;1.30;;;;;;;16.00;61.73;101300.34;10280989;28;20096;-77
2021/05/25 12:43:29;;;;;;;5.47;1.05;;;;;;;15.77;60.28;101267.16;10305636;28;20038;-77
2021/05/25 12:48:43;;;;;;;5.60;1.05;;;;;;;16.00;59.92;101286.72;10262168;28;20144;-76
2021/05/25 12:54:00;;;;;;;4.95;0.98;;;;;;;16.36;58.18;101300.41;10302270;28;20353;-76
2021/05/25 12:59:01;;;;;;;5.32;1.08;;;;;;;16.09;58.98;101258.31;10261530;28;20029;-77
2021/05/25 13:04:01;;;;;;;15.00;1.77;;;;;;;16.76;58.30;101301.22;10284932;28;20135;-76
2021/05/25 13:09:05;;;;;;;8.27;1.48;;;;;;;16.75;59.16;101316.06;10291841;28;20039;-78
2021/05/25 13:14:06;;;;;;;3.75;1.13;;;;;;;16.34;59.78;101308.22;10293422;28;20072;-76
2021/05/25 13:19:06;;;;;;;6.32;1.00;;;;;;;16.02;60.50;101291.78;10269678;28;20153;-79
2021/05/25 13:24:13;;;;;;;9.48;2.08;;;;;;;15.94;61.06;101307.31;10262174;28;20035;-75
2021/05/25 13:29:17;;;;;;;7.65;2.28;;;;;;;15.70;61.76;101316.16;10300150;28;20031;-85
2021/05/25 13:34:24;;;;;;;6.85;1.48;;;;;;;15.32;63.03;101310.13;10283623;28;20042;-87
2021/05/25 13:39:25;;;;;;;9.70;1.45;;;;;;;14.54;66.29;101294.78;10262028;28;20045;-84
2021/05/25 13:44:26;;;;;;;10.50;1.10;;;;;;;13.93;80.18;101332.94;10304486;28;20459;-85
2021/05/25 13:49:26;;;;;;;8.60;1.70;;;;;;;12.78;87.61;101330.47;10283464;28;20031;-85
2021/05/25 13:54:28;;;;;;;7.53;1.63;;;;;;;12.96;91.86;101319.94;10292389;28;20034;-83
2021/05/25 13:59:35;;;;;;;8.35;1.67;;;;;;;13.31;90.55;101310.75;10244108;28;20488;-85
2021/05/25 14:04:42;;;;;;;;;;;;;;;13.39;85.34;101331.44;10251904;28;20046;-77
2021/05/25 14:09:43;;;;;;;6.95;1.83;;;;;;;13.19;80.64;101289.22;10249801;28;20330;-78
2021/05/25 14:14:43;;;;;;;4.63;1.20;;;;;;;13.88;83.41;101330.56;10281528;28;20031;-78
2021/05/25 14:19:44;;;;;;;9.88;1.70;;;;;;;13.73;79.13;101290.75;10274607;28;20079;-78
2021/05/25 14:24:44;;;;;;;10.30;1.80;;;;;;;14.04;78.22;101311.34;10295390;28;20461;-80
2021/05/25 14:29:46;;;;;;;5.07;1.25;;;;;;;13.79;76.03;101327.34;10256336;28;20031;-78
2021/05/25 14:34:46;;;;;;;5.78;1.20;;;;;;;13.56;76.14;101329.34;10263908;28;20423;-79
2021/05/25 14:39:47;;;;;;;7.25;1.75;;;;;;;13.63;75.65;101334.88;10275417;28;20053;-80
2021/05/25 14:44:47;;;;;;;6.13;1.60;;;;;;;13.83;74.85;101333.59;10252585;28;20039;-83
2021/05/25 14:49:48;;;;;;;8.80;2.70;;;;;;;13.91;75.00;101323.59;10273567;28;20042;-83
2021/05/25 14:54:48;;;;;;;10.63;2.58;;;;;;;13.64;73.19;101336.44;10265733;28;20123;-82
2021/05/25 14:59:49;;;;;;;7.65;1.40;;;;;;;13.65;73.63;101327.16;10265452;28;20046;-83
2021/05/25 15:05:07;;;;;;;5.07;1.50;;;;;;;13.52;74.50;101297.50;10249924;28;20038;-86
2021/05/25 15:10:20;;;;;;;5.43;1.35;;;;;;;13.93;72.25;101316.63;10288371;28;20046;-85
2021/05/25 15:15:26;;;;;;;;;;;;;;;14.01;69.61;101327.59;10265244;28;20061;-84
2021/05/25 15:20:30;;;;;;;7.18;1.38;;;;;;;13.23;70.16;101230.34;10246078;28;19922;-84
2021/05/25 15:25:36;;;;;;;6.45;1.45;;;;;;;12.95;71.62;101214.44;10255536;28;20046;-81
2021/05/25 15:30:42;;;;;;;12.95;1.00;;;;;;;13.39;71.36;101266.28;10261735;28;20459;-83
2021/05/25 15:35:56;;;;;;;9.93;1.65;;;;;;;13.74;71.64;101300.50;10253379;28;20503;-82
2021/05/25 15:41:00;;;;;;;4.82;1.40;;;;;;;12.76;70.55;101174.66;10256512;28;20039;-84
2021/05/25 15:46:16;;;;;;;8.27;2.53;;;;;;;13.80;69.90;101326.16;10272745;28;20407;-82
2021/05/25 15:51:21;;;;;;;6.63;1.17;;;;;;;13.72;68.08;101256.59;10274082;28;20527;-81
2021/05/25 15:56:29;;;;;;;4.97;1.17;;;;;;;14.10;68.21;101336.25;10287885;28;20050;-82
2021/05/25 16:01:34;;;;;;;9.38;1.50;;;;;;;13.63;69.86;101291.41;10271475;28;20035;-83
2021/05/25 16:06:35;;;;;;;8.98;2.70;;;;;;;13.98;68.78;101306.59;10251130;28;20460;-81
2021/05/25 16:11:36;;;;;;;13.07;3.53;;;;;;;14.07;69.67;101331.56;10270697;28;20030;-80
2021/05/25 16:16:44;;;;;;;7.60;1.55;;;;;;;13.73;71.12;101328.78;10252288;28;20093;-81
2021/05/25 16:21:45;;;;;;;7.07;1.40;;;;;;;13.73;70.19;101334.22;10274262;28;20054;-80
2021/05/25 16:26:48;;;;;;;8.52;1.52;;;;;;;13.19;70.98;101272.94;10288221;28;20062;-85
2021/05/25 16:31:50;;;;;;;9.50;1.27;;;;;;;13.75;69.75;101321.06;10259471;28;20395;-81
2021/05/25 16:36:50;;;;;;;6.00;1.23;;;;;;;13.33;68.11;101251.44;10277811;28;20038;-79
2021/05/25 16:41:55;;;;;;;6.15;1.38;;;;;;;13.79;68.97;101304.81;10255963;28;20038;-80
2021/05/25 16:46:57;;;;;;;4.63;0.98;;;;;;;13.72;67.51;101278.34;10260439;28;20046;-82
2021/05/25 16:52:00;;;;;;;3.60;1.20;;;;;;;14.03;67.73;101325.28;10277598;28;20038;-84
2021/05/25 16:57:07;;;;;;;5.55;1.55;;;;;;;14.03;67.63;101325.28;10274361;28;20031;-82
2021/05/25 17:02:23;;;;;;;4.90;0.95;;;;;;;13.71;66.47;101298.50;10268979;28;20507;-85
2021/05/25 17:17:56;;;;;;;5.65;1.08;;;;;;;13.72;69.87;101348.97;10282032;28;20457;-85
2021/05/25 17:22:59;;;;;;;3.58;1.10;;;;;;;13.21;70.12;101266.00;10257995;28;20114;-83
2021/05/25 17:28:00;;;;;;;6.75;1.35;;;;;;;12.98;71.50;101241.66;10268710;28;20034;-85
2021/05/25 17:33:02;;;;;;;7.95;1.73;;;;;;;13.49;73.04;101330.03;10260484;28;20026;-82
2021/05/25 17:38:08;;;;;;;;;;;;;;;13.30;75.03;101336.34;10270253;28;20045;-88
2021/05/25 17:43:11;;;;;;;7.90;1.90;;;;;;;12.11;74.72;101146.56;10263311;28;19918;-84
2021/05/25 17:48:33;;;;;;;6.32;1.45;;;;;;;13.38;74.74;101343.47;10258951;28;20233;-86
2021/05/25 17:53:39;;;;;;;8.17;2.37;;;;;;;12.43;75.23;101222.97;10274701;28;20121;-86
2021/05/25 17:58:46;;;;;;;10.90;1.80;;;;;;;12.38;76.47;101242.25;10286433;28;20440;-87
2021/05/25 18:03:51;;;;;;;8.68;1.55;;;;;;;12.62;77.38;101273.63;10261266;28;20046;-86
2021/05/25 18:09:05;;;;;;;5.53;1.52;;;;;;;12.69;77.43;101268.31;10280629;28;20050;-86
2021/05/25 18:14:06;;;;;;;13.13;2.00;;;;;;;12.67;77.95;101278.75;10244706;28;20462;-86
2021/05/25 18:19:17;;;;;;;7.43;1.60;;;;;;;13.14;74.39;101352.75;10264728;28;20467;-86
2021/05/25 18:24:19;;;;;;;7.07;1.50;;;;;;;12.67;73.38;101276.03;10255499;28;20066;-83
2021/05/25 18:29:25;;;;;;;5.50;1.60;;;;;;;13.06;72.48;101351.09;10227529;28;20041;-84
2021/05/25 18:34:35;;;;;;;10.13;4.03;;;;;;;12.54;73.81;101266.53;10285732;28;20114;-85
2021/05/25 18:45:18;;;;;;;17.50;2.65;;;;;;;11.90;73.79;101152.38;10280762;28;20035;-86
2021/05/25 18:50:19;;;;;;;9.05;1.80;;;;;;;12.99;75.79;101351.75;10278270;28;20031;-81
2021/05/25 18:55:21;;;;;;;11.80;2.58;;;;;;;12.89;79.04;101352.38;10261167;28;20035;-79
2021/05/25 19:00:22;;;;;;;6.10;2.05;;;;;;;12.13;79.90;101214.69;10282317;28;20838;-84
2021/05/25 19:05:28;;;;;;;14.60;3.50;;;;;;;12.27;82.57;101261.03;10266848;28;20046;-83
2021/05/25 19:10:35;;;;;;;12.95;2.25;;;;;;;12.09;83.46;101249.09;10269525;28;20054;-82
2021/05/25 19:15:38;;;;;;;16.63;3.15;;;;;;;11.42;84.52;101154.53;10275273;28;20035;-83
2021/05/25 19:26:40;;;;;;;13.63;4.25;;;;;;;12.38;90.68;101349.91;10273054;28;20660;-83
2021/05/25 19:31:31;;;;;;;12.38;4.47;;;;;;;12.36;93.71;101352.19;10283196;28;20733;-82
2021/05/25 19:36:33;;;;;;;17.20;4.40;;;;;;;12.20;96.14;101355.75;10252349;28;20272;-81
2021/05/25 19:41:47;;;;;;;18.35;5.05;;;;;;;12.17;97.78;101351.06;10250253;28;20617;-82
2021/05/25 19:46:50;;;;;;;16.70;5.68;;;;;;;11.17;99.20;101240.63;10247542;28;20089;-79
2021/05/25 19:51:52;;;;;;;18.58;5.05;;;;;;;11.97;99.23;101368.44;10230284;28;20377;-80
2021/05/25 19:56:53;;;;;;;10.90;4.20;;;;;;;11.25;100.00;101274.81;10261091;28;20468;-81
2021/05/25 20:01:55;;;;;;;18.70;5.33;;;;;;;11.84;99.54;101365.84;10260792;28;20043;-80
2021/05/25 20:07:07;;;;;;;16.60;4.50;;;;;;;11.73;100.00;101367.53;10225582;28;20089;-82
2021/05/25 20:12:14;;;;;;;14.03;3.60;;;;;;;11.62;100.00;101371.94;10271949;28;20062;-81
2021/05/25 20:17:17;;;;;;;15.93;5.57;;;;;;;11.12;99.83;101292.31;10290230;28;20302;-88
2021/05/25 20:22:21;;;;;;;14.63;4.85;;;;;;;11.48;100.00;101360.78;10276018;28;20105;-86
2021/05/25 20:27:23;;;;;;;12.38;4.15;;;;;;;10.79;100.00;101263.72;10241093;28;20054;-82
2021/05/25 20:32:23;;;;;;;17.52;4.05;;;;;;;10.70;100.00;101260.41;10255885;28;20456;-82
2021/05/25 20:37:38;;;;;;;10.88;3.83;;;;;;;10.87;99.23;101292.50;10270683;28;20098;-83
2021/05/25 20:42:43;;;;;;;13.82;3.50;;;;;;;11.53;97.82;101376.75;10260500;28;20125;-84
2021/05/25 20:47:51;;;;;;;14.35;3.80;;;;;;;11.50;98.54;101382.88;10272443;28;20095;-82
2021/05/25 20:53:26;;;;;;;12.15;3.65;;;;;;;10.66;98.41;101232.50;10290972;28;20038;-83
2021/05/25 20:58:32;;;;;;;18.02;3.97;;;;;;;10.50;99.04;101214.38;10279874;28;20213;-84
2021/05/25 21:03:40;;;;;;;16.00;3.78;;;;;;;10.89;98.62;101240.75;10264504;28;20129;-86
2021/05/25 21:08:48;;;;;;;19.02;3.75;;;;;;;11.72;98.01;101351.66;10261923;28;20034;-82
2021/05/25 21:13:49;;;;;;;20.75;4.60;;;;;;;11.62;97.91;101332.09;10279330;28;20604;-80
2021/05/25 21:19:00;;;;;;;21.98;4.35;;;;;;;11.64;97.50;101312.78;10259896;28;20114;-82
2021/05/25 21:24:02;;;;;;;27.40;5.57;;;;;;;11.55;97.51;101320.34;10275578;28;20077;-81
2021/05/25 21:29:04;;;;;;;22.42;4.38;;;;;;;11.58;97.83;101314.22;10256390;28;20545;-83
2021/05/25 21:34:05;;;;;;;18.00;4.37;;;;;;;11.52;97.84;101310.19;10277586;28;20046;-82
2021/05/25 21:39:05;;;;;;;25.85;6.18;;;;;;;11.76;97.99;101331.63;10281155;28;20047;-80
2021/05/25 21:44:06;;;;;;;25.92;6.35;;;;;;;11.78;97.14;101334.78;10304598;28;20050;-84
2021/05/25 21:49:07;;;;;;;29.88;6.03;;;;;;;11.46;97.12;101289.97;10280604;28;20519;-80
2021/05/25 21:54:07;;;;;;;27.30;7.07;;;;;;;11.81;97.57;101334.06;10264327;28;20027;-80
2021/05/25 21:59:07;;;;;;;27.25;6.13;;;;;;;11.75;97.49;101324.63;10262634;28;20069;-81
2021/05/25 22:04:08;;;;;;;26.63;6.03;;;;;;;11.58;97.57;101314.22;10279730;28;20058;-81
2021/05/25 22:09:09;;;;;;;26.17;5.40;;;;;;;11.59;98.11;101304.94;10265119;28;20038;-79
2021/05/25 22:14:10;;;;;;;16.90;5.28;;;;;;;11.49;98.12;101311.69;10263945;28;20039;-80
2021/05/25 22:19:11;;;;;;;23.58;5.43;;;;;;;11.64;98.12;101312.78;10277892;28;20118;-79
2021/05/25 22:24:14;;;;;;;24.38;5.55;;;;;;;11.30;98.10;101277.25;10259898;28;20155;-81
2021/05/25 22:29:15;;;;;;;23.65;4.82;;;;;;;11.48;97.29;101320.19;10263768;28;20138;-80
2021/05/25 22:34:15;;;;;;;25.10;7.22;;;;;;;11.49;98.27;101310.91;10256481;28;20062;-80
2021/05/25 22:39:16;;;;;;;22.45;5.28;;;;;;;11.44;98.58;101314.69;10280437;28;20035;-80
2021/05/25 22:44:16;;;;;;;19.40;4.97;;;;;;;11.40;97.57;101303.75;10262849;28;20038;-80
2021/05/25 22:49:17;;;;;;;26.23;5.50;;;;;;;11.37;98.44;101315.31;10260958;28;20058;-79
2021/05/25 22:54:17;;;;;;;23.02;5.43;;;;;;;11.29;98.15;101302.75;10280307;28;20054;-78
2021/05/25 22:59:18;;;;;;;18.70;4.32;;;;;;;11.07;97.98;101235.75;10278265;28;20049;-80
2021/05/25 23:04:19;;;;;;;21.25;5.22;;;;;;;11.24;97.46;101261.63;10237266;28;20034;-79
2021/05/25 23:09:20;;;;;;;23.23;4.35;;;;;;;11.26;97.12;101292.63;10253747;28;20444;-78
2021/05/25 23:14:21;;;;;;;19.58;4.65;;;;;;;11.37;98.13;101299.06;10260372;28;20038;-79
2021/05/25 23:19:21;;;;;;;22.73;4.55;;;;;;;11.30;97.00;101282.66;10261545;28;20055;-79
2021/05/25 23:24:22;;;;;;;20.85;4.65;;;;;;;11.32;97.42;101279.63;10280097;28;20054;-79
2021/05/25 23:29:22;;;;;;;19.02;4.70;;;;;;;11.10;97.08;101240.47;10273576;28;20042;-78
2021/05/25 23:34:26;;;;;;;15.05;3.75;;;;;;;11.30;97.67;101282.66;10272431;28;20395;-78
2021/05/25 23:39:26;;;;;;;15.27;4.30;;;;;;;11.23;97.58;101282.50;10250402;28;20039;-80
2021/05/25 23:44:27;;;;;;;17.40;4.47;;;;;;;11.26;97.43;101276.38;10236661;28;20055;-79
2021/05/25 23:49:27;;;;;;;26.85;5.45;;;;;;;11.15;98.50;101280.78;10277408;28;20030;-78
2021/05/25 23:54:27;;;;;;;21.17;5.45;;;;;;;11.07;98.39;101257.41;10277866;28;20134;-79
2021/05/25 23:59:28;;;;;;;21.95;5.10;;;;;;;11.03;99.47;101261.94;10260854;28;20047;-78
